Time;durP1;ratioP1;P1;durP2;ratioP2;P2;SDS_P1;SDS_P2;PMS_P1;PMS_P2;Temp;Humidity;BMP_temperature;BMP_pressure;BME280_temperature;BME280_humidity;BME280_pressure;Samples;Min_cycle;Max_cycle;Signal;HPM_P1;HPM_P2
2021/09/23 00:00:28;;;;;;;;;;;;;;;;;;5095036;28;19924;-69
2021/09/23 00:03:13;;;;;;;;;;;;;;;;;;5095585;28;20015;-70
2021/09/23 00:05:40;;;;;;;;;;;;;;;;;;5087439;28;19935;-68
2021/09/23 00:08:07;;;;;;;;;;;;;;;;;;5095431;28;19924;-69
2021/09/23 00:10:34;;;;;;;;;;;;;;;;;;5095649;28;19924;-70
2021/09/23 00:13:01;;;;;;;;;;;;;;;;;;5097895;28;19924;-70
2021/09/23 00:15:29;;;;;;;;;;;;;;;;;;5100621;28;19924;-69
2021/09/23 00:17:56;;;;;;;;;;;;;;;;;;5101265;28;19935;-73
2021/09/23 00:20:23;;;;;;;;;;;;;;;;;;5095588;28;19924;-73
2021/09/23 00:22:50;;;;;;;;;;;;;;;;;;5093464;28;20095;-70
2021/09/23 00:25:17;;;;;;;;;;;;;;;;;;5094230;28;20018;-70
2021/09/23 00:27:44;;;;;;;;;;;;;;;;;;5094574;28;20300;-70
2021/09/23 00:30:11;;;;;;;;;;;;;;;;;;5094220;28;19928;-69
2021/09/23 00:32:37;;;;;;;;;;;;;;;;;;5094817;28;19923;-72
2021/09/23 00:35:04;;;;;;;;;;;;;;;;;;5095722;28;19924;-70
2021/09/23 00:37:31;;;;;;;;;;;;;;;;;;5095238;28;20344;-71
2021/09/23 00:39:58;;;;;;;;;;;;;;;;;;5094925;28;19928;-68
2021/09/23 00:42:25;;;;;;;;;;;;;;;;;;5094822;28;19924;-69
2021/09/23 00:44:52;;;;;;;;;;;;;;;;;;5090210;28;19924;-70
2021/09/23 00:47:19;;;;;;;;;;;;;;;;;;5088950;28;20398;-70
2021/09/23 00:49:46;;;;;;;;;;;;;;;;;;5093723;28;20372;-69
2021/09/23 00:52:13;;;;;;;;;;;;;;;;;;5094694;28;19924;-70
2021/09/23 00:54:40;;;;;;;;;;;;;;;;;;5092763;28;19924;-72
2021/09/23 00:57:07;;;;;;;;;;;;;;;;;;5094171;28;19931;-70
2021/09/23 00:59:34;;;;;;;;;;;;;;;;;;5093459;28;19932;-70
2021/09/23 01:02:01;;;;;;;;;;;;;;;;;;5094696;28;20292;-72
2021/09/23 01:04:27;;;;;;;;;;;;;;;;;;5094004;28;19924;-70
2021/09/23 01:06:54;;;;;;;;;;;;;;;;;;5093804;28;19924;-71
2021/09/23 01:09:21;;;;;;;;;;;;;;;;;;5093548;28;19928;-69
2021/09/23 01:11:48;;;;;;;;;;;;;;;;;;5093813;28;20151;-69
2021/09/23 01:14:15;;;;;;;;;;;;;;;;;;5093819;28;19924;-68
2021/09/23 01:16:42;;;;;;;;;;;;;;;;;;5094108;28;19930;-69
2021/09/23 01:19:10;;;;;;;;;;;;;;;;;;5093128;28;19924;-71
2021/09/23 01:21:37;;;;;;;;;;;;;;;;;;5093779;28;19924;-69
2021/09/23 01:24:04;;;;;;;;;;;;;;;;;;5094426;28;19991;-69
2021/09/23 01:26:31;;;;;;;;;;;;;;;;;;5093663;28;19946;-69
2021/09/23 01:28:58;;;;;;;;;;;;;;;;;;5094265;28;19924;-70
2021/09/23 01:31:25;;;;;;;;;;;;;;;;;;5093186;28;19924;-73
2021/09/23 01:33:52;;;;;;;;;;;;;;;;;;5092172;28;19924;-69
2021/09/23 01:36:19;;;;;;;;;;;;;;;;;;5093209;28;19931;-69
2021/09/23 01:38:46;;;;;;;;;;;;;;;;;;5093576;28;19924;-69
2021/09/23 01:41:14;;;;;;;;;;;;;;;;;;5093544;28;19924;-68
2021/09/23 01:43:41;;;;;;;;;;;;;;;;;;5092492;28;19928;-71
2021/09/23 01:46:08;;;;;;;;;;;;;;;;;;5093477;28;20010;-71
2021/09/23 01:48:35;;;;;;;;;;;;;;;;;;5093356;28;20292;-69
2021/09/23 01:51:02;;;;;;;;;;;;;;;;;;5093295;28;19930;-71
2021/09/23 01:53:29;;;;;;;;;;;;;;;;;;5093562;28;19987;-70
2021/09/23 01:55:56;;;;;;;;;;;;;;;;;;5093524;28;20384;-72
2021/09/23 01:58:22;;;;;;;;;;;;;;;;;;5093457;28;19928;-69
2021/09/23 02:00:49;;;;;;;;;;;;;;;;;;5093666;28;19930;-69
2021/09/23 02:03:16;;;;;;;;;;;;;;;;;;5092372;28;19924;-70
2021/09/23 02:05:43;;;;;;;;;;;;;;;;;;5093484;28;19927;-69
2021/09/23 02:08:10;;;;;;;;;;;;;;;;;;5093876;28;19934;-70
2021/09/23 02:10:37;;;;;;;;;;;;;;;;;;5093245;28;19931;-68
2021/09/23 02:13:04;;;;;;;;;;;;;;;;;;5094224;28;19928;-72
2021/09/23 02:15:31;;;;;;;;;;;;;;;;;;5097970;28;20380;-68
2021/09/23 02:17:58;;;;;;;;;;;;;;;;;;5096382;28;20007;-72
2021/09/23 02:20:25;;;;;;;;;;;;;;;;;;5094216;28;19924;-69
2021/09/23 02:22:52;;;;;;;;;;;;;;;;;;5097510;28;19924;-68
2021/09/23 02:25:19;;;;;;;;;;;;;;;;;;5097184;28;19924;-69
2021/09/23 02:27:46;;;;;;;;;;;;;;;;;;5097420;28;19931;-69
2021/09/23 02:30:13;;;;;;;;;;;;;;;;;;5095177;28;20308;-70
2021/09/23 02:32:40;;;;;;;;;;;;;;;;;;5098022;28;19928;-70
2021/09/23 02:35:07;;;;;;;;;;;;;;;;;;5099829;28;19924;-70
2021/09/23 02:37:34;;;;;;;;;;;;;;;;;;5098747;28;19930;-70
2021/09/23 02:40:01;;;;;;;;;;;;;;;;;;5097283;28;19928;-72
2021/09/23 02:42:28;;;;;;;;;;;;;;;;;;5100591;28;19932;-69
2021/09/23 02:44:55;;;;;;;;;;;;;;;;;;5099489;28;19924;-68
2021/09/23 02:47:23;;;;;;;;;;;;;;;;;;5096215;28;19924;-68
2021/09/23 02:49:50;;;;;;;;;;;;;;;;;;5096664;28;19981;-69
2021/09/23 02:52:17;;;;;;;;;;;;;;;;;;5097361;28;19931;-68
2021/09/23 02:54:44;;;;;;;;;;;;;;;;;;5097218;28;19924;-69
2021/09/23 02:57:11;;;;;;;;;;;;;;;;;;5096746;28;19973;-69
2021/09/23 02:59:38;;;;;;;;;;;;;;;;;;5096617;28;20010;-69
2021/09/23 03:02:05;;;;;;;;;;;;;;;;;;5095724;28;20392;-70
2021/09/23 03:04:32;;;;;;;;;;;;;;;;;;5096203;28;19924;-71
2021/09/23 03:06:59;;;;;;;;;;;;;;;;;;5096217;28;19924;-70
2021/09/23 03:09:26;;;;;;;;;;;;;;;;;;5095762;28;20328;-72
2021/09/23 03:11:53;;;;;;;;;;;;;;;;;;5096384;28;19924;-70
2021/09/23 03:14:20;;;;;;;;;;;;;;;;;;5095742;28;19935;-70
2021/09/23 03:16:47;;;;;;;;;;;;;;;;;;5091099;28;19931;-70
2021/09/23 03:19:14;;;;;;;;;;;;;;;;;;5095806;28;19924;-70
2021/09/23 03:21:41;;;;;;;;;;;;;;;;;;5096335;28;20298;-72
2021/09/23 03:24:08;;;;;;;;;;;;;;;;;;5096110;28;19930;-69
2021/09/23 03:26:35;;;;;;;;;;;;;;;;;;5096079;28;19931;-71
2021/09/23 03:29:02;;;;;;;;;;;;;;;;;;5096346;28;19924;-70
2021/09/23 03:31:29;;;;;;;;;;;;;;;;;;5096125;28;19941;-69
2021/09/23 03:33:56;;;;;;;;;;;;;;;;;;5099173;28;19936;-69
2021/09/23 03:36:24;;;;;;;;;;;;;;;;;;5100514;28;19987;-69
2021/09/23 03:38:53;;;;;;;;;;;;;;;;;;5095988;28;19961;-68
2021/09/23 03:41:20;;;;;;;;;;;;;;;;;;5095492;28;20247;-70
2021/09/23 03:43:47;;;;;;;;;;;;;;;;;;5108090;22;20020;-66
2021/09/23 03:46:14;;;;;;;;;;;;;;;;;;5093518;28;20299;-67
2021/09/23 03:48:41;;;;;;;;;;;;;;;;;;5093449;28;20019;-66
2021/09/23 03:51:08;;;;;;;;;;;;;;;;;;5092874;28;19924;-66
2021/09/23 03:53:38;;;;;;;;;;;;;;;;;;5083871;28;20019;-66
2021/09/23 03:56:05;;;;;;;;;;;;;;;;;;5074438;28;20321;-66
2021/09/23 03:58:32;;;;;;;;;;;;;;;;;;5073848;28;19924;-66
2021/09/23 04:00:59;;;;;;;;;;;;;;;;;;5074328;28;19924;-66
2021/09/23 04:03:26;;;;;;;;;;;;;;;;;;5073579;28;19925;-67
2021/09/23 04:05:53;;;;;;;;;;;;;;;;;;5073839;28;19931;-67
2021/09/23 04:08:20;;;;;;;;;;;;;;;;;;5072695;28;19925;-66
2021/09/23 04:10:47;;;;;;;;;;;;;;;;;;5074885;28;20375;-67
2021/09/23 04:13:14;;;;;;;;;;;;;;;;;;5074028;28;19924;-65
2021/09/23 04:15:42;;;;;;;;;;;;;;;;;;5073604;28;19932;-66
2021/09/23 04:18:09;;;;;;;;;;;;;;;;;;5073634;28;19931;-66
2021/09/23 04:20:36;;;;;;;;;;;;;;;;;;5074365;28;19969;-65
2021/09/23 04:23:03;;;;;;;;;;;;;;;;;;5072632;28;19931;-66
2021/09/23 04:25:30;;;;;;;;;;;;;;;;;;5073429;28;19924;-66
2021/09/23 04:27:57;;;;;;;;;;;;;;;;;;5073090;28;19948;-67
2021/09/23 04:30:24;;;;;;;;;;;;;;;;;;5070272;28;20307;-66
2021/09/23 04:32:51;;;;;;;;;;;;;;;;;;5073170;28;19954;-68
2021/09/23 04:35:17;;;;;;;;;;;;;;;;;;5080792;28;19924;-67
2021/09/23 04:37:44;;;;;;;;;;;;;;;;;;5075564;28;19935;-67
2021/09/23 04:40:11;;;;;;;;;;;;;;;;;;5073995;28;20372;-67
2021/09/23 04:42:38;;;;;;;;;;;;;;;;;;5073154;28;19925;-66
2021/09/23 04:45:05;;;;;;;;;;;;;;;;;;5073288;28;20015;-66
2021/09/23 04:47:32;;;;;;;;;;;;;;;;;;5072863;28;19925;-67
2021/09/23 04:49:59;;;;;;;;;;;;;;;;;;5073260;28;19924;-66
2021/09/23 04:52:26;;;;;;;;;;;;;;;;;;5072794;28;19925;-67
2021/09/23 04:54:53;;;;;;;;;;;;;;;;;;5072409;28;19946;-67
2021/09/23 04:57:20;;;;;;;;;;;;;;;;;;5073183;28;19925;-67
2021/09/23 04:59:47;;;;;;;;;;;;;;;;;;5072561;28;20380;-66
2021/09/23 05:02:14;;;;;;;;;;;;;;;;;;5073320;28;19931;-66
2021/09/23 05:04:45;;;;;;;;;;;;;;;;;;5072678;28;19924;-67
2021/09/23 05:07:12;;;;;;;;;;;;;;;;;;5071866;28;19924;-66
2021/09/23 05:09:38;;;;;;;;;;;;;;;;;;5083586;28;19924;-67
2021/09/23 05:12:05;;;;;;;;;;;;;;;;;;5075962;28;19931;-66
2021/09/23 05:14:32;;;;;;;;;;;;;;;;;;5079972;28;19930;-66
2021/09/23 05:17:00;;;;;;;;;;;;;;;;;;5072700;28;20384;-65
2021/09/23 05:19:27;;;;;;;;;;;;;;;;;;5072539;28;20032;-65
2021/09/23 05:21:54;;;;;;;;;;;;;;;;;;5083834;28;19925;-65
2021/09/23 05:24:21;;;;;;;;;;;;;;;;;;5079256;28;19931;-66
2021/09/23 05:26:48;;;;;;;;;;;;;;;;;;5076575;28;20015;-64
2021/09/23 05:29:14;;;;;;;;;;;;;;;;;;5070082;28;19928;-66
2021/09/23 05:31:41;;;;;;;;;;;;;;;;;;5073931;28;19932;-65
2021/09/23 05:34:08;;;;;;;;;;;;;;;;;;5072836;28;20385;-66
2021/09/23 05:36:35;;;;;;;;;;;;;;;;;;5073457;28;19976;-65
2021/09/23 05:39:04;;;;;;;;;;;;;;;;;;5072221;28;20003;-66
2021/09/23 05:41:31;;;;;;;;;;;;;;;;;;5076260;28;19932;-65
2021/09/23 05:43:58;;;;;;;;;;;;;;;;;;5085024;28;20247;-67
2021/09/23 05:46:25;;;;;;;;;;;;;;;;;;5071698;28;19929;-67
2021/09/23 05:48:52;;;;;;;;;;;;;;;;;;5072985;28;20015;-66
2021/09/23 05:51:19;;;;;;;;;;;;;;;;;;5074134;28;19924;-67
2021/09/23 05:53:46;;;;;;;;;;;;;;;;;;5073117;28;19946;-67
2021/09/23 05:56:15;;;;;;;;;;;;;;;;;;5071727;28;20125;-66
2021/09/23 05:58:41;;;;;;;;;;;;;;;;;;5082849;28;19932;-63
2021/09/23 06:01:08;;;;;;;;;;;;;;;;;;5074652;28;19939;-63
2021/09/23 06:03:35;;;;;;;;;;;;;;;;;;5079823;28;19932;-64
2021/09/23 06:06:02;;;;;;;;;;;;;;;;;;5084167;28;19925;-63
2021/09/23 06:08:32;;;;;;;;;;;;;;;;;;5087048;28;19931;-63
2021/09/23 06:10:59;;;;;;;;;;;;;;;;;;5078563;28;20007;-64
2021/09/23 06:13:26;;;;;;;;;;;;;;;;;;5084343;28;19930;-64
2021/09/23 06:15:53;;;;;;;;;;;;;;;;;;5075871;28;19925;-63
2021/09/23 06:18:19;;;;;;;;;;;;;;;;;;5076084;28;20293;-64
2021/09/23 06:20:47;;;;;;;;;;;;;;;;;;5077961;28;19924;-64
2021/09/23 06:23:15;;;;;;;;;;;;;;;;;;5084428;28;19939;-64
2021/09/23 06:25:42;;;;;;;;;;;;;;;;;;5075626;28;20376;-64
2021/09/23 06:28:10;;;;;;;;;;;;;;;;;;5075847;28;20015;-64
2021/09/23 06:30:37;;;;;;;;;;;;;;;;;;5076919;28;20403;-66
2021/09/23 06:33:05;;;;;;;;;;;;;;;;;;5084034;28;19931;-64
2021/09/23 06:35:32;;;;;;;;;;;;;;;;;;5075705;28;19963;-64
2021/09/23 06:37:59;;;;;;;;;;;;;;;;;;5075874;28;19925;-64
2021/09/23 06:40:26;;;;;;;;;;;;;;;;;;5075664;28;19931;-64
2021/09/23 06:42:53;;;;;;;;;;;;;;;;;;5075366;28;19924;-65
2021/09/23 06:45:20;;;;;;;;;;;;;;;;;;5075610;28;20308;-65
2021/09/23 06:47:47;;;;;;;;;;;;;;;;;;5085655;28;19929;-64
2021/09/23 06:50:14;;;;;;;;;;;;;;;;;;5086513;28;19924;-66
2021/09/23 06:52:41;;;;;;;;;;;;;;;;;;5075877;28;19924;-64
2021/09/23 06:55:08;;;;;;;;;;;;;;;;;;5075072;28;20412;-65
2021/09/23 06:57:35;;;;;;;;;;;;;;;;;;5075321;28;19964;-65
2021/09/23 07:00:02;;;;;;;;;;;;;;;;;;5075558;28;19932;-64
2021/09/23 07:02:29;;;;;;;;;;;;;;;;;;5075023;28;19925;-66
2021/09/23 07:04:56;;;;;;;;;;;;;;;;;;5075190;28;19931;-64
2021/09/23 07:07:23;;;;;;;;;;;;;;;;;;5075051;28;19924;-67
2021/09/23 07:09:51;;;;;;;;;;;;;;;;;;5076064;28;19931;-64
2021/09/23 07:12:18;;;;;;;;;;;;;;;;;;5074824;28;19928;-64
2021/09/23 07:14:45;;;;;;;;;;;;;;;;;;5074944;28;19925;-65
2021/09/23 07:17:12;;;;;;;;;;;;;;;;;;5074098;28;20001;-64
2021/09/23 07:19:39;;;;;;;;;;;;;;;;;;5075221;28;19931;-67
2021/09/23 07:22:08;;;;;;;;;;;;;;;;;;5074508;28;20019;-63
2021/09/23 07:24:35;;;;;;;;;;;;;;;;;;5074732;28;19931;-65
2021/09/23 07:27:02;;;;;;;;;;;;;;;;;;5074643;28;19929;-64
2021/09/23 07:29:29;;;;;;;;;;;;;;;;;;5084929;28;19944;-66
2021/09/23 07:31:56;;;;;;;;;;;;;;;;;;5074493;28;19950;-66
2021/09/23 07:34:23;;;;;;;;;;;;;;;;;;5074334;28;19964;-63
2021/09/23 07:36:49;;;;;;;;;;;;;;;;;;5074108;28;19924;-66
2021/09/23 07:39:16;;;;;;;;;;;;;;;;;;5075106;28;19931;-66
2021/09/23 07:41:44;;;;;;;;;;;;;;;;;;5074137;28;19924;-68
2021/09/23 07:44:11;;;;;;;;;;;;;;;;;;5074141;28;19970;-67
2021/09/23 07:46:38;;;;;;;;;;;;;;;;;;5074151;28;19950;-65
2021/09/23 07:49:05;;;;;;;;;;;;;;;;;;5085691;28;19967;-64
2021/09/23 07:51:32;;;;;;;;;;;;;;;;;;5084221;28;19928;-64
2021/09/23 07:53:59;;;;;;;;;;;;;;;;;;5074166;28;20019;-64
2021/09/23 07:56:26;;;;;;;;;;;;;;;;;;5074440;28;19930;-68
2021/09/23 07:58:53;;;;;;;;;;;;;;;;;;5074887;28;19925;-68
2021/09/23 08:01:20;;;;;;;;;;;;;;;;;;5077657;28;19931;-64
2021/09/23 08:03:48;;;;;;;;;;;;;;;;;;5080562;28;19925;-64
2021/09/23 08:06:15;;;;;;;;;;;;;;;;;;5074370;28;19951;-64
2021/09/23 08:08:42;;;;;;;;;;;;;;;;;;5075673;28;19924;-65
2021/09/23 08:11:09;;;;;;;;;;;;;;;;;;5074237;28;20018;-67
2021/09/23 08:13:36;;;;;;;;;;;;;;;;;;5074063;28;19928;-67
2021/09/23 08:16:03;;;;;;;;;;;;;;;;;;5071242;28;19932;-66
2021/09/23 08:18:30;;;;;;;;;;;;;;;;;;5074629;28;20345;-67
2021/09/23 08:20:56;;;;;;;;;;;;;;;;;;5072998;28;19924;-67
2021/09/23 08:23:24;;;;;;;;;;;;;;;;;;5073823;28;19925;-67
2021/09/23 08:25:52;;;;;;;;;;;;;;;;;;5073559;28;20263;-67
2021/09/23 08:28:23;;;;;;;;;;;;;;;;;;5073771;28;19976;-66
2021/09/23 08:30:50;;;;;;;;;;;;;;;;;;5072210;28;19924;-66
2021/09/23 08:33:17;;;;;;;;;;;;;;;;;;5073287;28;19925;-66
2021/09/23 08:35:44;;;;;;;;;;;;;;;;;;5073179;28;19986;-67
2021/09/23 08:38:11;;;;;;;;;;;;;;;;;;5074265;28;19924;-66
2021/09/23 08:40:38;;;;;;;;;;;;;;;;;;5072388;28;19925;-67
2021/09/23 08:43:05;;;;;;;;;;;;;;;;;;5072918;28;19925;-67
2021/09/23 08:45:32;;;;;;;;;;;;;;;;;;5072661;28;19979;-65
2021/09/23 08:47:59;;;;;;;;;;;;;;;;;;5074105;28;19935;-66
2021/09/23 08:50:26;;;;;;;;;;;;;;;;;;5072903;28;19931;-65
2021/09/23 08:52:53;;;;;;;;;;;;;;;;;;5073825;28;19930;-66
2021/09/23 08:55:20;;;;;;;;;;;;;;;;;;5073734;28;19924;-65
2021/09/23 08:57:47;;;;;;;;;;;;;;;;;;5073732;28;19960;-65
2021/09/23 09:00:14;;;;;;;;;;;;;;;;;;5072584;28;19928;-67
2021/09/23 09:02:40;;;;;;;;;;;;;;;;;;5073808;28;19932;-67
2021/09/23 09:05:07;;;;;;;;;;;;;;;;;;5074887;28;20411;-65
2021/09/23 09:07:34;;;;;;;;;;;;;;;;;;5073545;28;19970;-65
2021/09/23 09:10:01;;;;;;;;;;;;;;;;;;5073179;28;19947;-65
2021/09/23 09:12:28;;;;;;;;;;;;;;;;;;5072766;28;19925;-65
2021/09/23 09:14:55;;;;;;;;;;;;;;;;;;5072914;28;19925;-65
2021/09/23 09:17:22;;;;;;;;;;;;;;;;;;5069089;28;20380;-65
2021/09/23 09:19:50;;;;;;;;;;;;;;;;;;5072028;28;20479;-64
2021/09/23 09:22:17;;;;;;;;;;;;;;;;;;5072294;28;19931;-64
2021/09/23 09:24:44;;;;;;;;;;;;;;;;;;5072580;28;19967;-65
2021/09/23 09:27:11;;;;;;;;;;;;;;;;;;5072264;28;19924;-64
2021/09/23 09:29:38;;;;;;;;;;;;;;;;;;5070993;28;19930;-64
2021/09/23 09:32:08;;;;;;;;;;;;;;;;;;5072467;28;20532;-67
2021/09/23 09:34:35;;;;;;;;;;;;;;;;;;5072530;28;20483;-66
2021/09/23 09:37:02;;;;;;;;;;;;;;;;;;5068730;28;19938;-64
2021/09/23 09:39:30;;;;;;;;;;;;;;;;;;5072927;28;19971;-66
2021/09/23 09:44:34;;;;;;;;;;;;;;;;;;5069698;28;19938;-66
2021/09/23 09:47:01;;;;;;;;;;;;;;;;;;5071533;28;20303;-67
2021/09/23 09:49:28;;;;;;;;;;;;;;;;;;5070532;28;19925;-67
2021/09/23 09:51:55;;;;;;;;;;;;;;;;;;5071355;28;19925;-68
2021/09/23 09:54:22;;;;;;;;;;;;;;;;;;5070897;28;19929;-66
2021/09/23 09:56:48;;;;;;;;;;;;;;;;;;5071345;28;19929;-66
2021/09/23 09:59:15;;;;;;;;;;;;;;;;;;5071160;28;19931;-66
2021/09/23 10:01:42;;;;;;;;;;;;;;;;;;5071044;28;19931;-70
2021/09/23 10:04:09;;;;;;;;;;;;;;;;;;5071262;28;19924;-67
2021/09/23 10:06:36;;;;;;;;;;;;;;;;;;5070966;28;19925;-66
2021/09/23 10:09:03;;;;;;;;;;;;;;;;;;5071156;28;19978;-66
2021/09/23 10:11:30;;;;;;;;;;;;;;;;;;5070970;28;19924;-66
2021/09/23 10:13:57;;;;;;;;;;;;;;;;;;5071245;28;20304;-66
2021/09/23 10:16:24;;;;;;;;;;;;;;;;;;5070966;28;19924;-66
2021/09/23 10:18:51;;;;;;;;;;;;;;;;;;5070999;28;19924;-67
2021/09/23 10:21:18;;;;;;;;;;;;;;;;;;5070509;28;20277;-68
2021/09/23 10:23:45;;;;;;;;;;;;;;;;;;5071265;28;20012;-66
2021/09/23 10:26:12;;;;;;;;;;;;;;;;;;5067407;28;20307;-66
2021/09/23 10:28:39;;;;;;;;;;;;;;;;;;5071033;28;19939;-67
2021/09/23 10:31:08;;;;;;;;;;;;;;;;;;5070880;28;19924;-67
2021/09/23 10:33:35;;;;;;;;;;;;;;;;;;5070660;28;19970;-67
2021/09/23 10:36:02;;;;;;;;;;;;;;;;;;5067519;28;19974;-66
2021/09/23 10:38:29;;;;;;;;;;;;;;;;;;5060022;28;19928;-67
2021/09/23 10:40:56;;;;;;;;;;;;;;;;;;5070793;28;19924;-67
2021/09/23 10:43:23;;;;;;;;;;;;;;;;;;5070717;28;19931;-67
2021/09/23 10:45:50;;;;;;;;;;;;;;;;;;5070864;28;20276;-68
2021/09/23 10:48:17;;;;;;;;;;;;;;;;;;5070735;28;19924;-66
2021/09/23 10:50:44;;;;;;;;;;;;;;;;;;5063527;28;20393;-66
2021/09/23 10:53:11;;;;;;;;;;;;;;;;;;5068707;28;19924;-67
2021/09/23 10:55:39;;;;;;;;;;;;;;;;;;5074354;28;19924;-66
2021/09/23 10:58:06;;;;;;;;;;;;;;;;;;5074089;28;19971;-67
2021/09/23 11:00:33;;;;;;;;;;;;;;;;;;5074150;28;19947;-67
2021/09/23 11:03:00;;;;;;;;;;;;;;;;;;5073899;28;20307;-67
2021/09/23 11:05:27;;;;;;;;;;;;;;;;;;5074290;28;19924;-66
2021/09/23 11:07:54;;;;;;;;;;;;;;;;;;5074087;28;19930;-67
2021/09/23 11:10:21;;;;;;;;;;;;;;;;;;5073761;28;20031;-67
2021/09/23 11:12:48;;;;;;;;;;;;;;;;;;5074140;28;19936;-66
2021/09/23 11:15:15;;;;;;;;;;;;;;;;;;5073855;28;19925;-68
2021/09/23 11:17:42;;;;;;;;;;;;;;;;;;5074018;28;19925;-67
2021/09/23 11:20:09;;;;;;;;;;;;;;;;;;5073504;28;20566;-68
2021/09/23 11:22:36;;;;;;;;;;;;;;;;;;5073969;28;19924;-67
2021/09/23 11:25:03;;;;;;;;;;;;;;;;;;5073616;28;20392;-66
2021/09/23 11:27:30;;;;;;;;;;;;;;;;;;5074366;28;19928;-67
2021/09/23 11:29:57;;;;;;;;;;;;;;;;;;5073339;28;19924;-69
2021/09/23 11:32:23;;;;;;;;;;;;;;;;;;5073448;28;19924;-67
2021/09/23 11:34:50;;;;;;;;;;;;;;;;;;5073440;28;19925;-66
2021/09/23 11:37:17;;;;;;;;;;;;;;;;;;5073827;28;19925;-67
2021/09/23 11:39:44;;;;;;;;;;;;;;;;;;5073427;28;19924;-68
2021/09/23 11:42:11;;;;;;;;;;;;;;;;;;5073366;28;20019;-67
2021/09/23 11:44:38;;;;;;;;;;;;;;;;;;5073388;28;20593;-68
2021/09/23 11:47:05;;;;;;;;;;;;;;;;;;5073338;28;19924;-70
2021/09/23 11:49:32;;;;;;;;;;;;;;;;;;5073183;28;19970;-67
2021/09/23 11:51:59;;;;;;;;;;;;;;;;;;5073050;28;20303;-68
2021/09/23 11:54:26;;;;;;;;;;;;;;;;;;5073326;28;19924;-68
2021/09/23 11:56:53;;;;;;;;;;;;;;;;;;5073235;28;19932;-68
2021/09/23 11:59:22;;;;;;;;;;;;;;;;;;5068523;28;19928;-67
2021/09/23 12:01:49;;;;;;;;;;;;;;;;;;5067674;28;20336;-67
2021/09/23 12:04:16;;;;;;;;;;;;;;;;;;5072582;28;19925;-68
2021/09/23 12:06:43;;;;;;;;;;;;;;;;;;5073041;28;19932;-67
2021/09/23 12:09:12;;;;;;;;;;;;;;;;;;5072812;28;19929;-67
2021/09/23 12:11:39;;;;;;;;;;;;;;;;;;5072763;28;20049;-67
2021/09/23 12:14:06;;;;;;;;;;;;;;;;;;5072523;28;20381;-68
2021/09/23 12:16:33;;;;;;;;;;;;;;;;;;5072917;28;20300;-67
2021/09/23 12:19:01;;;;;;;;;;;;;;;;;;5072956;28;19931;-67
2021/09/23 12:21:28;;;;;;;;;;;;;;;;;;5072391;28;20007;-67
2021/09/23 12:23:55;;;;;;;;;;;;;;;;;;5072572;28;19986;-67
2021/09/23 12:26:22;;;;;;;;;;;;;;;;;;5072325;28;20304;-67
2021/09/23 12:28:49;;;;;;;;;;;;;;;;;;5072758;28;19956;-67
2021/09/23 12:31:16;;;;;;;;;;;;;;;;;;5072188;28;19935;-67
2021/09/23 12:33:44;;;;;;;;;;;;;;;;;;5072445;28;19925;-68
2021/09/23 12:36:12;;;;;;;;;;;;;;;;;;5072122;28;20431;-67
2021/09/23 12:38:39;;;;;;;;;;;;;;;;;;5072369;28;20390;-67
2021/09/23 12:41:06;;;;;;;;;;;;;;;;;;5072078;28;19925;-67
2021/09/23 12:43:33;;;;;;;;;;;;;;;;;;5072153;28;19928;-67
2021/09/23 12:46:00;;;;;;;;;;;;;;;;;;5072125;28;19976;-68
2021/09/23 12:48:29;;;;;;;;;;;;;;;;;;5072082;28;20434;-67
2021/09/23 12:50:56;;;;;;;;;;;;;;;;;;5062902;28;19925;-67
2021/09/23 12:53:23;;;;;;;;;;;;;;;;;;5069412;28;19931;-66
2021/09/23 12:55:50;;;;;;;;;;;;;;;;;;5072173;28;20303;-66
2021/09/23 12:58:17;;;;;;;;;;;;;;;;;;5072231;28;19924;-66
2021/09/23 13:00:44;;;;;;;;;;;;;;;;;;5071598;28;19924;-67
2021/09/23 13:03:11;;;;;;;;;;;;;;;;;;5072039;28;19930;-70
2021/09/23 13:05:38;;;;;;;;;;;;;;;;;;5071831;28;19931;-68
2021/09/23 13:08:05;;;;;;;;;;;;;;;;;;5071435;28;20320;-66
2021/09/23 13:10:32;;;;;;;;;;;;;;;;;;5071511;28;19925;-66
2021/09/23 13:12:59;;;;;;;;;;;;;;;;;;5071611;28;20016;-67
2021/09/23 13:15:26;;;;;;;;;;;;;;;;;;5064465;28;20362;-67
2021/09/23 13:17:53;;;;;;;;;;;;;;;;;;5061344;28;20422;-67
2021/09/23 13:20:20;;;;;;;;;;;;;;;;;;5071346;28;19928;-67
2021/09/23 13:22:47;;;;;;;;;;;;;;;;;;5071415;28;20228;-67
2021/09/23 13:25:14;;;;;;;;;;;;;;;;;;5071909;28;19932;-66
2021/09/23 13:27:41;;;;;;;;;;;;;;;;;;5071437;28;20462;-68
2021/09/23 13:30:11;;;;;;;;;;;;;;;;;;5071556;28;19971;-68
2021/09/23 13:32:38;;;;;;;;;;;;;;;;;;5071560;28;20307;-67
2021/09/23 13:35:05;;;;;;;;;;;;;;;;;;5071337;28;19954;-67
2021/09/23 13:37:32;;;;;;;;;;;;;;;;;;5071723;28;19931;-68
2021/09/23 13:39:59;;;;;;;;;;;;;;;;;;5071576;28;19925;-68
2021/09/23 13:42:27;;;;;;;;;;;;;;;;;;5071456;28;19924;-67
2021/09/23 13:44:54;;;;;;;;;;;;;;;;;;5071415;28;20307;-67
2021/09/23 13:47:21;;;;;;;;;;;;;;;;;;5071147;28;19928;-66
2021/09/23 13:49:48;;;;;;;;;;;;;;;;;;5070781;28;20642;-67
2021/09/23 13:52:14;;;;;;;;;;;;;;;;;;5071462;28;19932;-68
2021/09/23 13:54:42;;;;;;;;;;;;;;;;;;5071280;28;19929;-67
2021/09/23 13:57:09;;;;;;;;;;;;;;;;;;5060949;28;20475;-67
2021/09/23 13:59:36;;;;;;;;;;;;;;;;;;5071117;28;20299;-67
2021/09/23 14:02:03;;;;;;;;;;;;;;;;;;5071252;28;19924;-67
2021/09/23 14:04:29;;;;;;;;;;;;;;;;;;5071465;28;19931;-67
2021/09/23 14:06:56;;;;;;;;;;;;;;;;;;5060007;28;20273;-66
2021/09/23 14:09:26;;;;;;;;;;;;;;;;;;5071062;28;19925;-66
2021/09/23 14:11:53;;;;;;;;;;;;;;;;;;5070848;28;19931;-66
2021/09/23 14:14:20;;;;;;;;;;;;;;;;;;5067165;28;20015;-66
2021/09/23 14:16:47;;;;;;;;;;;;;;;;;;5059698;28;20015;-67
2021/09/23 14:19:14;;;;;;;;;;;;;;;;;;5071231;28;19928;-67
2021/09/23 14:21:41;;;;;;;;;;;;;;;;;;5071228;28;20011;-67
2021/09/23 14:24:12;;;;;;;;;;;;;;;;;;5071108;28;19924;-67
2021/09/23 14:26:42;;;;;;;;;;;;;;;;;;5061570;28;20388;-69
2021/09/23 14:29:09;;;;;;;;;;;;;;;;;;5073690;28;19924;-67
2021/09/23 14:31:36;;;;;;;;;;;;;;;;;;5071725;28;20350;-67
2021/09/23 14:34:03;;;;;;;;;;;;;;;;;;5074804;28;19925;-67
2021/09/23 14:36:30;;;;;;;;;;;;;;;;;;5074694;28;20376;-66
2021/09/23 14:38:57;;;;;;;;;;;;;;;;;;5074729;28;19925;-66
2021/09/23 14:41:24;;;;;;;;;;;;;;;;;;5074436;28;19931;-66
2021/09/23 14:43:51;;;;;;;;;;;;;;;;;;5074358;28;19928;-67
2021/09/23 14:46:18;;;;;;;;;;;;;;;;;;5075036;28;19935;-68
2021/09/23 14:48:45;;;;;;;;;;;;;;;;;;5074938;28;19928;-67
2021/09/23 14:51:12;;;;;;;;;;;;;;;;;;5063113;28;19931;-67
2021/09/23 14:53:39;;;;;;;;;;;;;;;;;;5074348;28;20007;-67
2021/09/23 14:56:06;;;;;;;;;;;;;;;;;;5063772;28;19924;-67
2021/09/23 14:58:33;;;;;;;;;;;;;;;;;;5074879;28;20019;-68
2021/09/23 15:01:00;;;;;;;;;;;;;;;;;;5073734;28;19931;-68
2021/09/23 15:03:29;;;;;;;;;;;;;;;;;;5074191;28;20003;-68
2021/09/23 15:05:59;;;;;;;;;;;;;;;;;;5062841;28;19924;-68
2021/09/23 15:08:26;;;;;;;;;;;;;;;;;;5074076;28;19967;-67
2021/09/23 15:10:53;;;;;;;;;;;;;;;;;;5073706;28;19925;-67
2021/09/23 15:13:20;;;;;;;;;;;;;;;;;;5070292;28;19925;-66
2021/09/23 15:15:47;;;;;;;;;;;;;;;;;;5063785;28;19939;-69
2021/09/23 15:18:15;;;;;;;;;;;;;;;;;;5074142;28;19930;-67
2021/09/23 15:20:42;;;;;;;;;;;;;;;;;;5074313;28;20334;-67
2021/09/23 15:23:09;;;;;;;;;;;;;;;;;;5073995;28;19931;-67
2021/09/23 15:25:36;;;;;;;;;;;;;;;;;;5074557;28;19928;-67
2021/09/23 15:28:03;;;;;;;;;;;;;;;;;;5075443;28;19947;-66
2021/09/23 15:30:33;;;;;;;;;;;;;;;;;;5073516;28;19925;-66
2021/09/23 15:33:00;;;;;;;;;;;;;;;;;;5070146;28;19924;-68
2021/09/23 15:35:27;;;;;;;;;;;;;;;;;;5073757;28;19928;-66
2021/09/23 15:37:56;;;;;;;;;;;;;;;;;;5073269;28;20276;-65
2021/09/23 15:40:23;;;;;;;;;;;;;;;;;;5073497;28;19931;-66
2021/09/23 15:42:50;;;;;;;;;;;;;;;;;;5070337;28;19930;-67
2021/09/23 15:45:17;;;;;;;;;;;;;;;;;;5070684;28;19935;-67
2021/09/23 15:47:45;;;;;;;;;;;;;;;;;;5073565;28;20384;-72
2021/09/23 15:50:13;;;;;;;;;;;;;;;;;;5073188;28;19928;-67
2021/09/23 15:52:40;;;;;;;;;;;;;;;;;;5069167;28;19924;-67
2021/09/23 15:55:07;;;;;;;;;;;;;;;;;;5073241;28;20020;-67
2021/09/23 15:57:34;;;;;;;;;;;;;;;;;;5073231;28;19931;-67
2021/09/23 16:00:01;;;;;;;;;;;;;;;;;;5072944;28;19932;-67
2021/09/23 16:02:28;;;;;;;;;;;;;;;;;;5072942;28;19979;-67
2021/09/23 16:04:55;;;;;;;;;;;;;;;;;;5072771;28;19928;-67
2021/09/23 16:07:22;;;;;;;;;;;;;;;;;;5073147;28;19931;-67
2021/09/23 16:09:49;;;;;;;;;;;;;;;;;;5072620;28;20392;-66
2021/09/23 16:12:16;;;;;;;;;;;;;;;;;;5062411;28;19978;-67
2021/09/23 16:14:43;;;;;;;;;;;;;;;;;;5072626;28;19925;-67
2021/09/23 16:17:10;;;;;;;;;;;;;;;;;;5072951;28;19924;-67
2021/09/23 16:19:37;;;;;;;;;;;;;;;;;;5072197;28;20397;-67
2021/09/23 16:22:04;;;;;;;;;;;;;;;;;;5072984;28;19924;-68
2021/09/23 16:24:31;;;;;;;;;;;;;;;;;;5072667;28;19925;-67
2021/09/23 16:26:58;;;;;;;;;;;;;;;;;;5072773;28;19971;-67
2021/09/23 16:29:25;;;;;;;;;;;;;;;;;;5072569;28;19925;-67
2021/09/23 16:31:52;;;;;;;;;;;;;;;;;;5072430;28;19939;-68
2021/09/23 16:34:19;;;;;;;;;;;;;;;;;;5061805;28;20483;-67
2021/09/23 16:36:46;;;;;;;;;;;;;;;;;;5072589;28;19925;-67
2021/09/23 16:39:13;;;;;;;;;;;;;;;;;;5072108;28;19928;-67
2021/09/23 16:41:40;;;;;;;;;;;;;;;;;;5072201;28;19936;-68
2021/09/23 16:44:07;;;;;;;;;;;;;;;;;;5072062;28;19925;-67
2021/09/23 16:46:35;;;;;;;;;;;;;;;;;;5072255;28;19985;-67